Time;durP1;ratioP1;P1;durP2;ratioP2;P2;SDS_P1;SDS_P2;PMS_P1;PMS_P2;Temp;Humidity;BMP_temperature;BMP_pressure;BME280_temperature;BME280_humidity;BME280_pressure;Samples;Min_cycle;Max_cycle;Signal;HPM_P1;HPM_P2
2021/06/05 00:01:27;;;;;;;55.60;36.97;;;16.60;99.90;;;;;;4972607;29;20035;-84
2021/06/05 00:03:55;;;;;;;54.22;36.45;;;16.60;99.90;;;;;;4989256;29;20475;-84
2021/06/05 00:06:24;;;;;;;53.55;35.92;;;16.60;99.90;;;;;;4972886;29;20035;-84
2021/06/05 00:08:52;;;;;;;55.80;35.22;;;16.50;99.90;;;;;;4988800;29;20039;-83
2021/06/05 00:11:22;;;;;;;52.95;35.70;;;16.50;99.90;;;;;;4973233;29;20522;-85
2021/06/05 00:13:56;;;;;;;53.72;35.83;;;16.50;99.90;;;;;;4988045;29;20071;-83
2021/06/05 00:16:29;;;;;;;50.63;34.47;;;16.50;99.90;;;;;;4973594;29;20039;-84
2021/06/05 00:18:56;;;;;;;54.17;35.00;;;16.50;99.90;;;;;;4988921;29;20035;-83
2021/06/05 00:21:26;;;;;;;50.75;35.10;;;16.50;99.90;;;;;;4972665;29;20070;-84
2021/06/05 00:23:55;;;;;;;55.10;36.42;;;16.50;99.90;;;;;;4987921;29;20447;-83
2021/06/05 00:26:22;;;;;;;52.53;34.38;;;16.50;99.90;;;;;;4988399;29;20407;-84
2021/06/05 00:28:49;;;;;;;53.45;33.95;;;16.40;99.90;;;;;;4988087;29;20062;-83
2021/06/05 00:31:17;;;;;;;52.25;34.20;;;16.40;99.90;;;;;;4989529;28;20035;-84
2021/06/05 00:33:44;;;;;;;47.30;32.70;;;16.40;99.90;;;;;;4972239;29;20050;-84
2021/06/05 00:36:12;;;;;;;50.00;33.17;;;16.40;99.90;;;;;;4988323;29;20090;-83
2021/06/05 00:38:39;;;;;;;55.55;35.35;;;16.40;99.90;;;;;;4987977;29;20067;-84
2021/06/05 00:41:08;;;;;;;48.78;32.75;;;16.40;99.90;;;;;;4956318;29;20089;-84
2021/06/05 00:43:40;;;;;;;48.80;33.65;;;16.40;99.90;;;;;;4971469;29;20467;-84
2021/06/05 00:46:06;;;;;;;51.17;33.95;;;16.30;99.90;;;;;;4988447;29;20411;-83
2021/06/05 00:48:33;;;;;;;52.55;34.85;;;16.40;99.90;;;;;;4972006;29;20048;-83
2021/06/05 00:51:00;;;;;;;67.40;37.20;;;16.40;99.90;;;;;;4972305;29;20423;-84
2021/06/05 00:53:28;;;;;;;79.53;41.63;;;16.30;99.90;;;;;;4971844;29;20483;-84
2021/06/05 00:55:58;;;;;;;73.68;40.88;;;16.30;99.90;;;;;;4971570;29;20559;-83
2021/06/05 00:58:26;;;;;;;77.30;43.35;;;16.20;99.90;;;;;;4988192;29;20147;-83
2021/06/05 01:01:08;;;;;;;80.15;43.10;;;16.20;99.90;;;;;;4987802;29;20040;-83
2021/06/05 01:03:37;;;;;;;81.78;43.20;;;16.10;99.90;;;;;;4988746;28;20047;-83
2021/06/05 01:06:13;;;;;;;88.90;45.80;;;16.20;99.90;;;;;;4956476;29;20043;-84
2021/06/05 01:09:00;;;;;;;88.85;44.90;;;16.20;99.90;;;;;;4987579;29;20042;-83
2021/06/05 01:11:51;;;;;;;83.00;44.60;;;16.30;99.90;;;;;;4988335;28;20051;-84
2021/06/05 01:14:33;;;;;;;72.68;42.40;;;16.20;99.90;;;;;;4992189;29;20047;-84
2021/06/05 01:17:05;;;;;;;77.18;42.80;;;16.20;99.90;;;;;;4992044;29;20043;-83
2021/06/05 01:19:35;;;;;;;81.32;41.67;;;16.20;99.90;;;;;;4992018;29;20039;-84
2021/06/05 01:22:41;;;;;;;87.15;43.08;;;16.20;99.90;;;;;;4991945;29;20043;-84
2021/06/05 01:25:36;;;;;;;96.50;45.78;;;16.20;99.90;;;;;;4953792;28;20545;-84
2021/06/05 01:28:15;;;;;;;104.43;46.45;;;16.10;99.90;;;;;;4991375;29;20039;-83
2021/06/05 01:30:49;;;;;;;126.93;49.33;;;16.20;99.90;;;;;;4991020;29;20094;-84
2021/06/05 01:33:21;;;;;;;145.18;52.35;;;16.20;99.90;;;;;;4991242;29;20043;-84
2021/06/05 01:35:49;;;;;;;121.25;50.13;;;16.20;99.90;;;;;;4990982;29;20104;-84
2021/06/05 01:38:19;;;;;;;102.75;47.25;;;16.20;99.90;;;;;;4991611;29;20050;-84
2021/06/05 01:40:48;;;;;;;87.63;45.80;;;16.20;99.90;;;;;;4991214;29;20446;-84
2021/06/05 01:43:18;;;;;;;94.32;45.50;;;16.30;99.90;;;;;;4991475;29;20046;-84
2021/06/05 01:45:46;;;;;;;94.38;45.75;;;16.20;99.90;;;;;;4991182;29;20059;-84
2021/06/05 01:48:15;;;;;;;90.18;46.22;;;16.20;99.90;;;;;;4976106;29;20451;-85
2021/06/05 01:50:44;;;;;;;90.32;44.80;;;16.20;99.90;;;;;;4991008;29;20130;-84
2021/06/05 01:53:25;;;;;;;87.85;45.88;;;16.30;99.90;;;;;;4991043;29;20099;-85
2021/06/05 01:55:55;;;;;;;80.90;44.50;;;16.30;99.90;;;;;;4990899;29;20069;-85
2021/06/05 01:58:27;;;;;;;62.75;39.95;;;16.30;99.90;;;;;;4991166;29;20039;-85
2021/06/05 02:00:57;;;;;;;62.20;40.92;;;16.30;99.90;;;;;;4990864;29;20035;-84
2021/06/05 02:03:25;;;;;;;53.42;37.55;;;16.30;99.90;;;;;;4990828;29;20403;-85
2021/06/05 02:05:53;;;;;;;57.67;38.25;;;16.30;99.90;;;;;;4990591;29;20131;-84
2021/06/05 02:08:23;;;;;;;54.70;38.38;;;16.30;99.90;;;;;;4975135;29;20117;-84
2021/06/05 02:10:54;;;;;;;55.95;39.00;;;16.30;99.90;;;;;;4974713;29;20098;-84
2021/06/05 02:13:25;;;;;;;57.33;39.30;;;16.30;99.90;;;;;;4992009;28;20058;-84
2021/06/05 02:15:58;;;;;;;57.67;37.47;;;16.40;99.90;;;;;;4990958;29;20047;-84
2021/06/05 02:18:28;;;;;;;49.67;36.08;;;16.40;99.90;;;;;;4990931;29;20046;-84
2021/06/05 02:21:06;;;;;;;55.53;37.08;;;16.40;99.90;;;;;;4990439;29;20062;-84
2021/06/05 02:23:45;;;;;;;51.13;34.60;;;16.40;99.90;;;;;;4990516;28;20043;-84
2021/06/05 02:26:15;;;;;;;45.05;33.55;;;16.40;99.90;;;;;;4990753;29;20043;-85
2021/06/05 02:28:42;;;;;;;46.58;34.38;;;16.40;99.90;;;;;;4990250;29;20039;-84
2021/06/05 02:31:11;;;;;;;40.22;31.88;;;16.40;99.90;;;;;;4958756;29;20074;-84
2021/06/05 02:33:39;;;;;;;38.50;30.23;;;16.40;99.90;;;;;;4990571;29;20075;-84
2021/06/05 02:36:10;;;;;;;37.33;30.48;;;16.40;99.90;;;;;;4990062;29;20042;-84
2021/06/05 02:38:42;;;;;;;36.15;30.02;;;16.30;99.90;;;;;;4990347;29;20043;-84
2021/06/05 02:41:10;;;;;;;40.53;30.27;;;16.40;99.90;;;;;;4990138;29;20186;-84
2021/06/05 02:43:38;;;;;;;43.45;31.52;;;16.30;99.90;;;;;;4974272;29;20498;-84
2021/06/05 02:46:16;;;;;;;39.95;30.58;;;16.30;99.90;;;;;;4974142;29;20050;-85
2021/06/05 02:48:48;;;;;;;37.50;29.67;;;16.30;99.90;;;;;;4990647;29;20051;-85
2021/06/05 02:51:19;;;;;;;39.38;29.85;;;16.30;99.90;;;;;;4974403;29;20054;-84
2021/06/05 02:53:45;;;;;;;37.72;29.63;;;16.30;99.90;;;;;;4991019;28;20043;-84
2021/06/05 02:56:13;;;;;;;38.20;30.13;;;16.30;99.90;;;;;;4989944;29;20057;-84
2021/06/05 02:58:40;;;;;;;33.97;28.30;;;16.20;99.90;;;;;;4990989;28;20480;-84
2021/06/05 03:01:08;;;;;;;37.00;28.88;;;16.20;99.90;;;;;;4989245;29;20471;-84
2021/06/05 03:03:36;;;;;;;38.15;29.60;;;16.20;99.90;;;;;;4973990;29;20110;-84
2021/06/05 03:06:05;;;;;;;40.63;32.20;;;16.20;99.90;;;;;;4989098;29;20050;-84
2021/06/05 03:08:35;;;;;;;41.95;32.10;;;16.30;99.90;;;;;;4989093;29;20377;-84
2021/06/05 03:11:06;;;;;;;49.83;34.83;;;16.20;99.90;;;;;;4989317;29;20043;-84
2021/06/05 03:13:33;;;;;;;58.17;39.17;;;16.30;99.90;;;;;;4989780;29;20043;-84
2021/06/05 03:16:00;;;;;;;56.38;37.97;;;16.20;99.90;;;;;;4957871;29;20039;-84
2021/06/05 03:18:27;;;;;;;61.13;40.25;;;16.20;99.90;;;;;;4990932;28;20032;-85
2021/06/05 03:20:56;;;;;;;56.75;37.83;;;16.20;99.90;;;;;;4989333;29;20039;-84
2021/06/05 03:23:25;;;;;;;58.63;39.67;;;16.20;99.90;;;;;;4974090;29;20369;-85
2021/06/05 03:25:53;;;;;;;53.65;37.53;;;16.20;99.90;;;;;;4990278;28;20043;-84
2021/06/05 03:28:22;;;;;;;54.08;36.47;;;16.20;99.90;;;;;;4973703;29;20047;-84
2021/06/05 03:30:50;;;;;;;55.28;36.95;;;16.20;99.90;;;;;;4972947;29;20122;-84
2021/06/05 03:33:19;;;;;;;56.42;37.28;;;16.20;99.90;;;;;;4973373;29;20407;-85
2021/06/05 03:35:46;;;;;;;66.38;40.53;;;16.20;99.90;;;;;;4973099;29;20035;-85
2021/06/05 03:38:13;;;;;;;68.18;40.45;;;16.20;99.90;;;;;;4973324;29;20402;-85
2021/06/05 03:40:41;;;;;;;70.00;41.25;;;16.20;99.90;;;;;;4973778;29;20538;-85
2021/06/05 03:43:09;;;;;;;76.57;41.65;;;16.20;99.90;;;;;;4957256;29;20047;-86
2021/06/05 03:45:36;;;;;;;73.97;41.90;;;16.20;99.90;;;;;;4990482;28;20039;-85
2021/06/05 03:48:04;;;;;;;77.90;42.63;;;16.20;99.90;;;;;;4973214;29;20032;-85
2021/06/05 03:50:47;;;;;;;80.03;43.65;;;16.30;99.90;;;;;;4989491;29;20054;-85
2021/06/05 03:53:15;;;;;;;80.55;40.83;;;16.30;99.90;;;;;;4972626;29;20051;-85
2021/06/05 03:55:42;;;;;;;82.65;41.65;;;16.30;99.90;;;;;;4957223;29;20043;-85
2021/06/05 03:58:10;;;;;;;75.97;41.60;;;16.30;99.90;;;;;;4988749;29;20069;-85
2021/06/05 04:00:43;;;;;;;75.00;42.55;;;16.30;99.90;;;;;;4990203;28;20517;-85
2021/06/05 04:03:13;;;;;;;73.97;41.28;;;16.40;99.90;;;;;;4973226;29;20039;-85
2021/06/05 04:05:41;;;;;;;64.95;39.33;;;16.40;99.90;;;;;;4973179;29;20098;-86
2021/06/05 04:08:10;;;;;;;62.05;39.33;;;16.40;99.90;;;;;;4956904;29;20043;-85
2021/06/05 04:10:37;;;;;;;62.80;38.50;;;16.40;99.90;;;;;;4981228;28;20043;-85
2021/06/05 04:13:05;;;;;;;58.67;37.60;;;16.40;99.90;;;;;;4992158;28;20051;-85
2021/06/05 04:15:33;;;;;;;55.95;38.13;;;16.40;99.90;;;;;;4972851;29;20035;-85
2021/06/05 04:18:12;;;;;;;60.47;38.17;;;16.50;99.90;;;;;;4989442;28;20098;-85
2021/06/05 04:20:41;;;;;;;52.55;35.72;;;16.50;99.90;;;;;;4998981;28;20475;-86
2021/06/05 04:23:09;;;;;;;63.30;39.50;;;16.60;99.90;;;;;;4972537;29;20475;-85
2021/06/05 04:25:36;;;;;;;53.05;36.60;;;16.60;99.90;;;;;;4988174;29;20039;-85
2021/06/05 04:28:08;;;;;;;50.63;35.15;;;16.60;99.90;;;;;;4998505;28;20066;-85
2021/06/05 04:30:36;;;;;;;50.53;35.75;;;16.60;99.90;;;;;;4973162;29;20101;-85
2021/06/05 04:33:04;;;;;;;50.55;33.63;;;16.50;99.90;;;;;;4988132;29;20399;-84
2021/06/05 04:35:52;;;;;;;44.15;32.33;;;16.50;99.90;;;;;;4975653;29;20047;-85
2021/06/05 04:38:20;;;;;;;45.08;31.45;;;16.40;99.90;;;;;;4994789;28;20062;-85
2021/06/05 04:40:47;;;;;;;42.38;32.08;;;16.40;99.90;;;;;;4991864;28;20465;-85
2021/06/05 04:43:15;;;;;;;49.33;34.85;;;16.40;99.90;;;;;;5001918;28;20046;-84
2021/06/05 04:45:42;;;;;;;47.17;33.55;;;16.30;99.90;;;;;;4975649;28;20493;-85
2021/06/05 04:48:10;;;;;;;54.55;33.97;;;16.30;99.90;;;;;;4987470;29;20483;-84
2021/06/05 04:50:38;;;;;;;47.40;35.60;;;16.30;99.90;;;;;;4988183;29;20043;-84
2021/06/05 04:53:05;;;;;;;50.80;35.78;;;16.20;99.90;;;;;;4988872;28;20484;-84
2021/06/05 04:55:34;;;;;;;50.55;35.47;;;16.20;99.90;;;;;;4988248;28;20055;-84
2021/06/05 04:58:03;;;;;;;50.20;35.28;;;16.20;99.90;;;;;;4971789;29;20403;-84
2021/06/05 05:00:37;;;;;;;50.50;35.97;;;16.20;99.90;;;;;;4972222;29;20039;-85
2021/06/05 05:03:05;;;;;;;54.75;37.33;;;16.10;99.90;;;;;;4988696;29;20113;-83
2021/06/05 05:05:33;;;;;;;56.63;36.90;;;16.10;99.90;;;;;;4972043;29;20062;-84
2021/06/05 05:08:00;;;;;;;56.05;37.10;;;16.20;99.90;;;;;;4955693;29;20491;-83
2021/06/05 05:10:33;;;;;;;54.88;37.20;;;16.20;99.90;;;;;;4955921;29;20047;-84
2021/06/05 05:13:01;;;;;;;56.80;39.30;;;16.10;99.90;;;;;;4971138;29;20043;-83
2021/06/05 05:15:28;;;;;;;59.95;38.22;;;16.10;99.90;;;;;;4971701;29;20543;-84
2021/06/05 05:17:55;;;;;;;72.07;41.25;;;16.10;99.90;;;;;;4955716;29;20476;-83
2021/06/05 05:20:26;;;;;;;87.80;41.60;;;16.00;99.90;;;;;;4923913;29;20047;-83
2021/06/05 05:22:53;;;;;;;70.78;39.55;;;16.00;99.90;;;;;;4971208;29;20042;-86
2021/06/05 05:25:20;;;;;;;79.57;40.45;;;15.80;99.90;;;;;;4955522;29;20483;-85
2021/06/05 05:27:46;;;;;;;73.40;39.95;;;15.70;99.90;;;;;;4940447;29;20114;-86
2021/06/05 05:30:21;;;;;;;77.80;37.13;;;15.60;99.90;;;;;;4939672;29;20094;-85
2021/06/05 05:32:48;;;;;;;68.13;37.72;;;15.60;99.90;;;;;;4989091;29;20039;-86
2021/06/05 05:35:16;;;;;;;66.85;35.20;;;15.50;99.90;;;;;;4955545;29;20468;-86
2021/06/05 05:37:43;;;;;;;64.00;36.20;;;15.50;99.90;;;;;;4971731;29;20050;-85
2021/06/05 05:40:12;;;;;;;77.38;36.40;;;15.50;99.90;;;;;;4971061;29;20118;-85
2021/06/05 05:42:39;;;;;;;62.67;34.80;;;15.50;99.90;;;;;;4971379;29;20031;-85
2021/06/05 05:45:07;;;;;;;88.30;37.22;;;15.50;99.90;;;;;;4939630;29;20051;-84
2021/06/05 05:47:34;;;;;;;65.70;35.83;;;15.50;99.90;;;;;;4971447;29;20043;-85
2021/06/05 05:50:02;;;;;;;60.53;32.80;;;15.50;99.90;;;;;;4955331;29;20504;-86
2021/06/05 05:52:28;;;;;;;58.55;30.48;;;15.50;99.90;;;;;;4939439;29;20043;-87
2021/06/05 05:54:55;;;;;;;60.55;30.95;;;15.50;99.90;;;;;;4940961;29;20480;-87
2021/06/05 05:57:22;;;;;;;58.88;28.67;;;15.50;99.90;;;;;;4958348;28;20098;-88
2021/06/05 05:59:49;;;;;;;55.22;27.90;;;15.40;99.90;;;;;;4964197;28;20075;-88
2021/06/05 06:02:16;;;;;;;48.10;26.80;;;15.30;99.90;;;;;;5003013;28;20034;-88
2021/06/05 06:04:42;;;;;;;51.95;28.00;;;15.30;99.90;;;;;;5014679;28;20049;-89
2021/06/05 06:07:09;;;;;;;44.90;26.77;;;15.30;99.90;;;;;;4998699;28;20061;-86
2021/06/05 06:09:36;;;;;;;46.20;26.73;;;15.30;99.90;;;;;;4967616;28;20181;-87
2021/06/05 06:12:04;;;;;;;49.22;27.17;;;15.20;99.90;;;;;;4982472;28;20065;-87
2021/06/05 06:14:31;;;;;;;74.13;29.55;;;15.20;99.90;;;;;;4981745;28;20487;-86
2021/06/05 06:16:58;;;;;;;51.42;28.10;;;15.30;99.90;;;;;;4982271;28;20042;-86
2021/06/05 06:19:25;;;;;;;48.83;28.00;;;15.30;99.90;;;;;;5013711;28;20035;-86
2021/06/05 06:21:52;;;;;;;61.13;30.15;;;15.40;99.90;;;;;;4981744;28;20042;-86
2021/06/05 06:24:19;;;;;;;60.25;29.60;;;15.30;99.90;;;;;;4981466;28;20482;-86
2021/06/05 06:26:46;;;;;;;58.17;28.65;;;15.40;99.90;;;;;;4982026;28;20038;-86
2021/06/05 06:29:15;;;;;;;48.90;27.95;;;15.40;99.90;;;;;;4996296;28;20038;-86
2021/06/05 06:31:45;;;;;;;41.33;26.60;;;15.50;99.90;;;;;;4976204;28;20039;-87
2021/06/05 06:34:13;;;;;;;48.17;27.10;;;15.50;99.90;;;;;;4994025;28;20467;-86
2021/06/05 06:36:44;;;;;;;49.42;27.23;;;15.50;99.90;;;;;;4963160;28;20082;-88
2021/06/05 06:39:13;;;;;;;38.22;18.92;;;15.50;99.90;;;;;;4994246;28;20038;-89
2021/06/05 06:41:41;;;;;;;24.63;15.13;;;15.50;99.90;;;;;;4990874;28;20126;-89
2021/06/05 06:44:09;;;;;;;20.77;11.68;;;15.50;99.90;;;;;;4994408;28;20039;-91
2021/06/05 06:46:39;;;;;;;19.20;11.07;;;15.50;99.90;;;;;;5007521;28;20043;-90
2021/06/05 06:49:06;;;;;;;15.57;9.05;;;15.50;99.90;;;;;;5003836;28;20926;-90
2021/06/05 06:51:35;;;;;;;18.98;9.20;;;15.40;99.90;;;;;;5008231;28;20402;-89
2021/06/05 06:54:04;;;;;;;15.95;9.77;;;15.40;99.90;;;;;;4979493;28;20046;-89
2021/06/05 06:56:32;;;;;;;17.67;9.65;;;15.40;99.90;;;;;;5000435;28;20051;-90
2021/06/05 06:58:59;;;;;;;15.05;9.25;;;15.30;99.90;;;;;;4989098;28;20039;-91
2021/06/05 07:01:27;;;;;;;14.82;7.72;;;15.30;99.90;;;;;;5005044;28;20395;-90
2021/06/05 07:03:54;;;;;;;22.15;9.20;;;15.30;99.90;;;;;;4998792;28;20494;-91
2021/06/05 07:06:22;;;;;;;18.85;11.98;;;15.30;99.90;;;;;;4986915;28;20619;-89
2021/06/05 07:08:49;;;;;;;5.97;2.70;;;15.30;99.90;;;;;;4994386;28;20106;-87
2021/06/05 07:11:20;;;;;;;8.63;4.88;;;15.30;99.90;;;;;;4989672;28;20039;-88
2021/06/05 07:13:48;;;;;;;16.40;6.35;;;15.20;99.90;;;;;;5005652;28;20070;-90
2021/06/05 07:16:15;;;;;;;12.15;6.80;;;15.20;99.90;;;;;;4974528;29;20050;-88
2021/06/05 07:18:43;;;;;;;10.57;6.90;;;15.20;99.90;;;;;;4966124;28;20049;-90
2021/06/05 07:21:11;;;;;;;11.02;6.90;;;15.20;99.90;;;;;;5010482;28;20031;-91
2021/06/05 07:23:39;;;;;;;11.00;6.57;;;15.30;99.90;;;;;;4992107;28;20090;-92
2021/06/05 07:26:13;;;;;;;8.27;5.78;;;15.20;99.90;;;;;;4990751;29;20067;-90
2021/06/05 07:28:43;;;;;;;10.00;6.22;;;15.30;99.90;;;;;;4991651;28;20044;-89
2021/06/05 07:31:15;;;;;;;15.40;7.07;;;15.30;99.90;;;;;;4990977;29;20200;-93
2021/06/05 07:33:45;;;;;;;10.07;6.32;;;15.30;99.90;;;;;;4990362;29;20043;-88
2021/06/05 07:36:15;;;;;;;8.57;5.95;;;15.30;99.90;;;;;;4990263;29;20122;-90
2021/06/05 07:38:42;;;;;;;9.80;5.93;;;15.40;99.90;;;;;;4989552;29;20043;-89
2021/06/05 07:41:09;;;;;;;9.40;6.70;;;15.40;99.90;;;;;;4974828;29;20431;-89
2021/06/05 07:43:37;;;;;;;12.63;7.57;;;15.40;99.90;;;;;;4990095;29;20049;-90
2021/06/05 07:46:05;;;;;;;11.88;7.40;;;15.40;99.90;;;;;;4975222;29;20607;-96
2021/06/05 07:48:32;;;;;;;12.52;8.50;;;15.50;99.90;;;;;;4974597;29;20411;-90
2021/06/05 07:50:59;;;;;;;13.38;8.80;;;15.50;99.90;;;;;;4991735;28;20099;-90
2021/06/05 07:53:27;;;;;;;16.80;10.57;;;15.50;99.90;;;;;;4991822;28;20510;-89
2021/06/05 07:55:53;;;;;;;12.95;10.27;;;15.60;99.90;;;;;;5000132;28;20054;-89
2021/06/05 07:58:20;;;;;;;17.27;12.40;;;15.60;99.90;;;;;;4956475;29;20403;-86
2021/06/05 08:00:47;;;;;;;15.15;11.48;;;15.70;99.90;;;;;;4980835;28;20034;-88
2021/06/05 08:03:14;;;;;;;15.57;11.55;;;15.80;99.90;;;;;;5008304;28;20035;-89
2021/06/05 08:05:41;;;;;;;14.52;11.98;;;15.80;99.90;;;;;;4942739;29;20050;-89
2021/06/05 08:08:11;;;;;;;16.10;12.27;;;15.80;99.90;;;;;;4974143;28;20110;-88
2021/06/05 08:10:41;;;;;;;14.50;11.90;;;15.90;99.90;;;;;;4992165;28;20042;-88
2021/06/05 08:13:10;;;;;;;16.58;12.93;;;16.00;99.90;;;;;;5010196;28;20043;-88
2021/06/05 08:15:41;;;;;;;16.02;13.18;;;16.10;99.90;;;;;;4976377;28;20051;-89
2021/06/05 08:18:08;;;;;;;16.88;12.90;;;16.10;99.90;;;;;;4993064;28;20035;-88
2021/06/05 08:20:44;;;;;;;16.33;12.95;;;16.20;99.90;;;;;;4976168;28;20034;-88
2021/06/05 08:23:11;;;;;;;;;;;16.20;99.90;;;;;;5009974;28;20127;-87
2021/06/05 08:25:38;;;;;;;16.92;14.68;;;16.30;99.90;;;;;;4975600;28;19918;-87
2021/06/05 08:28:08;;;;;;;17.38;14.50;;;16.30;99.90;;;;;;4976822;28;20128;-87
2021/06/05 08:30:44;;;;;;;19.20;16.23;;;16.30;99.90;;;;;;4975922;28;20069;-87
2021/06/05 08:33:13;;;;;;;24.10;17.73;;;16.30;99.90;;;;;;4992150;28;20070;-88
2021/06/05 08:35:41;;;;;;;22.33;18.80;;;16.30;99.90;;;;;;4991874;28;20435;-87
2021/06/05 08:38:12;;;;;;;25.42;21.85;;;16.30;99.90;;;;;;4991387;28;20031;-85
2021/06/05 08:40:50;;;;;;;24.30;21.55;;;16.30;99.90;;;;;;5005333;28;20052;-85
2021/06/05 08:43:24;;;;;;;29.98;25.20;;;16.20;99.90;;;;;;4989475;29;20408;-85
2021/06/05 08:45:52;;;;;;;33.70;25.63;;;16.30;99.90;;;;;;4984249;28;20038;-85
2021/06/05 08:48:20;;;;;;;33.70;26.40;;;16.30;99.90;;;;;;4954718;28;20399;-85
2021/06/05 08:50:47;;;;;;;40.60;28.83;;;16.40;99.90;;;;;;4977211;29;20039;-84
2021/06/05 08:53:23;;;;;;;35.25;25.95;;;16.50;99.90;;;;;;4924798;29;20057;-85
2021/06/05 08:55:54;;;;;;;;;;;16.50;99.90;;;;;;4983982;28;20145;-85
2021/06/05 08:58:29;;;;;;;25.95;20.98;;;16.60;99.90;;;;;;4991036;28;19926;-85
2021/06/05 09:01:14;;;;;;;27.52;21.42;;;16.60;99.90;;;;;;4990779;28;20062;-85
2021/06/05 09:03:42;;;;;;;29.08;23.70;;;16.60;99.90;;;;;;4981150;29;20118;-85
2021/06/05 09:06:43;;;;;;;29.90;23.80;;;16.60;99.90;;;;;;4985622;28;20077;-85
2021/06/05 09:09:20;;;;;;;33.22;24.92;;;16.70;99.90;;;;;;4989498;29;20399;-85
2021/06/05 09:11:48;;;;;;;31.70;24.10;;;16.70;99.90;;;;;;4981073;29;20062;-85
2021/06/05 09:14:15;;;;;;;26.58;22.50;;;16.80;99.90;;;;;;4971869;29;20039;-86
2021/06/05 09:16:50;;;;;;;30.27;24.85;;;16.90;99.90;;;;;;4949574;28;20039;-85
2021/06/05 09:19:27;;;;;;;30.50;24.67;;;16.90;99.90;;;;;;4975182;29;20399;-85
2021/06/05 09:22:06;;;;;;;25.50;22.30;;;16.90;99.90;;;;;;4981840;28;20049;-85
2021/06/05 09:24:47;;;;;;;27.95;23.05;;;17.00;99.90;;;;;;4991000;28;20076;-85
2021/06/05 09:27:17;;;;;;;27.23;23.23;;;17.00;99.90;;;;;;4979401;29;20043;-85
2021/06/05 09:30:26;;;;;;;26.35;22.70;;;17.00;99.90;;;;;;4981485;29;20435;-85
2021/06/05 09:33:02;;;;;;;31.38;25.23;;;17.00;99.90;;;;;;4977940;29;20126;-85
2021/06/05 09:35:42;;;;;;;30.83;26.05;;;17.10;99.90;;;;;;4986343;28;20499;-85
2021/06/05 09:38:33;;;;;;;30.33;26.58;;;17.20;99.90;;;;;;5001903;28;20054;-85
2021/06/05 09:41:08;;;;;;;29.00;25.50;;;17.30;99.90;;;;;;4991468;29;20468;-85
2021/06/05 09:43:36;;;;;;;29.20;25.50;;;17.40;99.90;;;;;;4991892;28;20035;-84
2021/06/05 09:46:31;;;;;;;31.88;27.20;;;17.60;99.90;;;;;;4994967;28;20039;-84
2021/06/05 09:49:26;;;;;;;29.13;26.02;;;17.80;99.90;;;;;;4992923;28;20085;-85
2021/06/05 09:52:10;;;;;;;27.70;24.80;;;18.00;99.90;;;;;;4994062;28;20039;-85
2021/06/05 09:54:41;;;;;;;28.13;24.08;;;18.10;99.90;;;;;;5012056;28;20030;-85
2021/06/05 09:57:17;;;;;;;30.77;26.75;;;18.30;99.90;;;;;;5004255;28;20450;-85
2021/06/05 09:59:56;;;;;;;27.55;24.63;;;18.30;99.90;;;;;;5010133;28;20062;-86
2021/06/05 10:02:23;;;;;;;24.45;20.02;;;18.30;99.90;;;;;;5010371;28;20495;-86
2021/06/05 10:05:15;;;;;;;24.45;21.75;;;18.50;99.90;;;;;;5009753;28;20086;-86
2021/06/05 10:07:42;;;;;;;23.42;20.98;;;18.60;99.90;;;;;;5011657;28;20118;-85
2021/06/05 10:10:31;;;;;;;23.38;20.98;;;18.60;99.90;;;;;;4975769;28;20476;-85
2021/06/05 10:13:01;;;;;;;26.60;23.77;;;18.60;99.90;;;;;;5011322;28;20089;-86
2021/06/05 10:15:36;;;;;;;26.42;23.58;;;18.70;99.90;;;;;;5010230;28;20034;-86
2021/06/05 10:18:14;;;;;;;26.90;24.08;;;18.60;99.90;;;;;;5001822;28;20051;-87
2021/06/05 10:21:02;;;;;;;28.65;25.55;;;18.80;99.90;;;;;;5009759;28;20069;-86
2021/06/05 10:23:33;;;;;;;31.25;25.48;;;18.90;99.90;;;;;;5011308;28;20480;-86
2021/06/05 10:26:04;;;;;;;30.67;27.33;;;19.10;99.90;;;;;;5009925;28;20502;-86
2021/06/05 10:28:44;;;;;;;31.35;28.00;;;19.20;99.90;;;;;;5009839;28;20070;-86
2021/06/05 10:31:15;;;;;;;31.90;28.15;;;19.20;99.90;;;;;;5011616;28;20037;-86
2021/06/05 10:33:54;;;;;;;31.38;26.63;;;19.30;99.90;;;;;;5000220;28;20062;-86
2021/06/05 10:36:31;;;;;;;32.20;28.55;;;19.30;99.90;;;;;;5008261;28;20054;-86
2021/06/05 10:39:05;;;;;;;28.95;25.88;;;19.30;99.90;;;;;;4990480;29;20123;-86
2021/06/05 10:41:42;;;;;;;32.75;28.63;;;19.40;99.90;;;;;;5010021;28;20414;-86
2021/06/05 10:44:10;;;;;;;25.27;22.80;;;19.50;99.90;;;;;;5029081;28;20052;-91
2021/06/05 10:47:01;;;;;;;29.85;26.42;;;19.50;99.90;;;;;;5025564;28;20039;-87
2021/06/05 10:49:33;;;;;;;25.27;22.80;;;19.60;99.90;;;;;;5009917;28;20039;-86
2021/06/05 10:52:09;;;;;;;23.10;20.83;;;19.60;99.90;;;;;;5000449;28;20106;-86
2021/06/05 10:54:43;;;;;;;22.50;20.15;;;19.70;99.90;;;;;;4991936;28;20039;-85
2021/06/05 10:57:19;;;;;;;28.10;25.20;;;19.80;99.90;;;;;;5005698;28;20047;-87
2021/06/05 10:59:52;;;;;;;25.42;22.88;;;20.00;99.90;;;;;;4991080;28;20122;-85
2021/06/05 11:02:38;;;;;;;23.35;20.83;;;20.20;99.90;;;;;;5004330;28;20039;-85
2021/06/05 11:05:17;;;;;;;23.80;21.38;;;20.30;99.90;;;;;;4993212;28;20403;-85
2021/06/05 11:07:46;;;;;;;25.52;22.92;;;20.30;99.90;;;;;;4978132;29;20047;-85
2021/06/05 11:10:58;;;;;;;23.77;21.58;;;20.40;99.90;;;;;;4993152;28;20185;-85
2021/06/05 11:13:35;;;;;;;25.17;21.13;;;20.50;99.90;;;;;;4976494;28;20059;-86
2021/06/05 11:16:01;;;;;;;23.60;21.23;;;20.60;99.90;;;;;;4991391;28;20039;-84
2021/06/05 11:18:43;;;;;;;30.25;23.05;;;20.50;99.90;;;;;;5009316;28;20043;-86
2021/06/05 11:21:22;;;;;;;25.90;23.40;;;20.60;99.90;;;;;;4993672;28;20041;-86
2021/06/05 11:23:58;;;;;;;26.15;23.55;;;20.70;99.90;;;;;;5010075;28;20047;-85
2021/06/05 11:26:46;;;;;;;27.20;23.67;;;20.70;99.90;;;;;;5009707;28;20039;-87
2021/06/05 11:29:19;;;;;;;24.48;22.17;;;20.80;99.90;;;;;;5009091;28;20050;-85
2021/06/05 11:31:46;;;;;;;27.75;24.17;;;20.90;99.90;;;;;;5000789;28;20032;-86
2021/06/05 11:34:38;;;;;;;24.15;21.85;;;21.00;99.90;;;;;;4998557;28;20065;-86
2021/06/05 11:37:15;;;;;;;20.58;18.63;;;21.10;99.90;;;;;;4999145;28;20118;-86
2021/06/05 11:39:42;;;;;;;20.70;18.60;;;21.00;99.90;;;;;;5005929;28;20043;-86
2021/06/05 11:42:19;;;;;;;19.13;17.27;;;21.20;99.90;;;;;;5015312;28;20395;-85
2021/06/05 11:45:09;;;;;;;20.30;18.35;;;21.10;99.90;;;;;;5019501;28;20121;-83
2021/06/05 11:47:40;;;;;;;19.13;17.13;;;21.10;99.90;;;;;;4997862;28;20042;-85
2021/06/05 11:50:10;;;;;;;18.25;16.48;;;20.90;99.90;;;;;;4995849;28;20106;-85
2021/06/05 11:52:39;;;;;;;16.55;14.90;;;20.90;99.90;;;;;;5004128;28;20471;-84
2021/06/05 11:55:06;;;;;;;21.25;17.33;;;20.90;99.90;;;;;;4997799;28;20529;-85
2021/06/05 11:57:37;;;;;;;16.55;14.95;;;20.90;99.90;;;;;;5006736;28;20102;-85
2021/06/05 12:00:11;;;;;;;19.33;16.33;;;20.90;99.90;;;;;;4977717;28;20066;-85
2021/06/05 12:02:44;;;;;;;17.17;15.48;;;20.90;99.90;;;;;;4989921;29;20035;-85
2021/06/05 12:05:21;;;;;;;18.63;16.10;;;20.90;99.90;;;;;;4983382;28;20042;-85
2021/06/05 12:07:49;;;;;;;17.13;15.52;;;20.80;99.90;;;;;;4986752;28;20054;-85
2021/06/05 12:10:36;;;;;;;18.20;16.40;;;20.80;99.90;;;;;;4992135;28;20046;-86
2021/06/05 12:13:06;;;;;;;18.77;16.90;;;20.70;99.90;;;;;;4992250;28;20046;-85
2021/06/05 12:15:39;;;;;;;20.02;18.05;;;20.70;99.90;;;;;;4992339;28;20113;-85
2021/06/05 12:18:09;;;;;;;20.70;18.67;;;20.70;99.90;;;;;;4991710;28;20038;-85
2021/06/05 12:20:41;;;;;;;20.33;18.30;;;20.70;99.90;;;;;;5009000;28;20054;-86
2021/06/05 12:23:39;;;;;;;21.45;19.35;;;20.70;99.90;;;;;;4991554;28;20090;-85
2021/06/05 12:26:11;;;;;;;18.45;16.75;;;20.80;99.90;;;;;;4972559;29;20068;-85
2021/06/05 12:28:44;;;;;;;19.35;17.52;;;20.90;99.90;;;;;;4972644;29;20039;-85
2021/06/05 12:31:17;;;;;;;19.90;17.92;;;21.00;99.90;;;;;;4972987;28;20050;-85
2021/06/05 12:33:54;;;;;;;20.63;18.63;;;21.10;99.90;;;;;;4983736;29;20039;-85
2021/06/05 12:36:28;;;;;;;17.20;15.50;;;21.20;99.90;;;;;;4987805;28;20043;-85
2021/06/05 12:39:10;;;;;;;18.10;16.38;;;21.20;99.90;;;;;;4991251;28;20040;-85
2021/06/05 12:41:38;;;;;;;21.05;18.83;;;21.30;99.90;;;;;;4991466;28;20427;-85
2021/06/05 12:44:07;;;;;;;20.48;18.40;;;21.30;99.90;;;;;;4971730;29;20039;-86
2021/06/05 12:46:36;;;;;;;22.13;19.92;;;21.20;99.90;;;;;;4956922;28;20047;-85
2021/06/05 12:49:06;;;;;;;24.13;21.02;;;21.10;99.90;;;;;;4972370;29;20070;-85
2021/06/05 12:51:37;;;;;;;22.35;19.95;;;21.00;99.90;;;;;;4982749;28;20395;-86